createdAt,value
2022-07-25T00:00:32.805Z,2.83
2022-07-25T00:03:02.092Z,2.75
2022-07-25T00:05:35.746Z,2.60
2022-07-25T00:08:06.603Z,2.70
2022-07-25T00:10:34.652Z,2.50
2022-07-25T00:13:02.650Z,2.50
2022-07-25T00:15:30.769Z,2.33
2022-07-25T00:17:58.712Z,3.00
2022-07-25T00:20:28.154Z,2.47
2022-07-25T00:22:56.341Z,2.30
2022-07-25T00:25:24.452Z,2.72
2022-07-25T00:27:52.640Z,2.65
2022-07-25T00:30:20.820Z,2.53
2022-07-25T00:32:49.198Z,2.72
2022-07-25T00:35:17.355Z,2.88
2022-07-25T00:37:46.715Z,2.50
2022-07-25T00:40:14.906Z,2.60
2022-07-25T00:42:43.111Z,2.35
2022-07-25T00:45:11.935Z,2.78
2022-07-25T00:47:39.938Z,2.35
2022-07-25T00:50:09.029Z,2.70
2022-07-25T00:52:37.596Z,2.80
2022-07-25T00:55:08.541Z,2.75
2022-07-25T00:57:36.587Z,3.13
2022-07-25T01:00:07.074Z,3.00
2022-07-25T01:02:35.198Z,3.40
2022-07-25T01:05:06.984Z,3.08
2022-07-25T01:07:39.190Z,2.97
2022-07-25T01:10:10.058Z,3.33
2022-07-25T01:12:52.705Z,3.38
2022-07-25T01:15:22.506Z,3.65
2022-07-25T01:17:51.073Z,3.90
2022-07-25T01:20:21.031Z,3.10
2022-07-25T01:22:49.250Z,3.60
2022-07-25T01:25:17.646Z,4.00
2022-07-25T01:27:48.847Z,3.67
2022-07-25T01:30:22.058Z,3.80
2022-07-25T01:32:50.231Z,4.78
2022-07-25T01:35:18.304Z,3.88
2022-07-25T01:37:47.711Z,4.10
2022-07-25T01:40:16.290Z,4.53
2022-07-25T01:42:47.299Z,4.22
2022-07-25T01:45:17.959Z,4.47
2022-07-25T01:47:49.305Z,4.38
2022-07-25T01:50:19.757Z,4.18
2022-07-25T01:52:52.352Z,4.68
2022-07-25T01:55:20.755Z,5.03
2022-07-25T01:57:49.790Z,4.80
2022-07-25T02:00:18.969Z,5.43
2022-07-25T02:02:47.259Z,5.30
2022-07-25T02:05:16.211Z,5.60
2022-07-25T02:07:44.155Z,5.40
2022-07-25T02:10:13.621Z,4.68
2022-07-25T02:12:41.652Z,4.97
2022-07-25T02:15:10.553Z,5.13
2022-07-25T02:17:38.640Z,5.57
2022-07-25T02:20:07.919Z,3.92
2022-07-25T02:22:35.892Z,3.70
2022-07-25T02:25:03.922Z,4.32
2022-07-25T02:27:33.374Z,4.75
2022-07-25T02:30:01.415Z,5.38
2022-07-25T02:32:29.462Z,5.10
2022-07-25T02:34:58.406Z,5.43
2022-07-25T02:37:26.575Z,4.88
2022-07-25T02:39:54.528Z,5.07
2022-07-25T02:42:22.458Z,4.88
2022-07-25T02:44:52.104Z,5.03
2022-07-25T02:47:20.224Z,4.45
2022-07-25T02:49:48.151Z,5.20
2022-07-25T02:52:16.143Z,4.60
2022-07-25T02:54:44.193Z,4.63
2022-07-25T02:57:12.243Z,4.65
2022-07-25T02:59:40.159Z,4.72
2022-07-25T03:02:09.574Z,4.30
2022-07-25T03:04:37.656Z,4.03
2022-07-25T03:07:08.832Z,3.72
2022-07-25T03:09:36.958Z,3.97
2022-07-25T03:12:05.746Z,3.72
2022-07-25T03:14:33.756Z,3.72
2022-07-25T03:17:01.775Z,4.10
2022-07-25T03:19:31.181Z,4.70
2022-07-25T03:21:59.142Z,3.55
2022-07-25T03:24:27.142Z,4.40
2022-07-25T03:26:55.467Z,3.78
2022-07-25T03:29:23.646Z,4.03
2022-07-25T03:31:52.889Z,4.28
2022-07-25T03:34:21.270Z,4.63
2022-07-25T03:36:50.487Z,4.60
2022-07-25T03:39:18.891Z,5.70
2022-07-25T03:41:47.008Z,4.90
2022-07-25T03:44:15.318Z,4.97
2022-07-25T03:46:43.393Z,5.53
2022-07-25T03:49:11.675Z,6.50
2022-07-25T03:51:39.776Z,6.85
2022-07-25T03:54:13.586Z,6.28
2022-07-25T03:56:44.265Z,5.90
2022-07-25T03:59:14.074Z,5.90
2022-07-25T04:01:43.514Z,6.38
2022-07-25T04:04:12.102Z,6.65
2022-07-25T04:06:41.577Z,5.53
2022-07-25T04:09:12.020Z,6.63
2022-07-25T04:11:40.373Z,6.75
2022-07-25T04:14:09.549Z,7.05
2022-07-25T04:16:37.872Z,7.93
2022-07-25T04:19:08.982Z,6.82
2022-07-25T04:21:36.960Z,7.15
2022-07-25T04:24:05.521Z,7.40
2022-07-25T04:26:35.209Z,7.88
2022-07-25T04:29:04.013Z,7.80
2022-07-25T04:31:32.341Z,7.78
2022-07-25T04:34:01.238Z,8.38
2022-07-25T04:36:29.492Z,7.72
2022-07-25T04:38:57.634Z,7.78
2022-07-25T04:41:25.908Z,7.75
2022-07-25T04:43:55.540Z,7.82
2022-07-25T04:46:24.339Z,7.47
2022-07-25T04:48:52.807Z,7.15
2022-07-25T04:51:21.054Z,7.72
2022-07-25T04:53:49.121Z,7.68
2022-07-25T04:56:17.070Z,7.75
2022-07-25T04:58:45.227Z,8.18
2022-07-25T05:01:14.826Z,8.18
2022-07-25T05:03:50.034Z,8.88
2022-07-25T05:06:18.889Z,7.95
2022-07-25T05:08:47.108Z,8.50
2022-07-25T05:11:15.039Z,8.77
2022-07-25T05:13:43.038Z,7.97
2022-07-25T05:16:11.025Z,8.50
2022-07-25T05:18:40.550Z,8.27
2022-07-25T05:21:11.531Z,8.90
2022-07-25T05:23:39.834Z,10.32
2022-07-25T05:26:07.961Z,9.80
2022-07-25T05:28:36.134Z,9.63
2022-07-25T05:31:04.263Z,8.75
2022-07-25T05:33:32.318Z,7.45
2022-07-25T05:36:03.379Z,7.18
2022-07-25T05:38:31.306Z,8.00
2022-07-25T05:40:59.213Z,8.88
2022-07-25T05:43:27.729Z,8.43
2022-07-25T05:46:01.891Z,7.40
2022-07-25T05:48:30.282Z,7.47
2022-07-25T05:50:59.426Z,8.75
2022-07-25T05:53:28.907Z,8.50
2022-07-25T05:55:57.050Z,7.47
2022-07-25T05:58:29.732Z,9.55
2022-07-25T06:00:58.419Z,8.77
2022-07-25T06:03:27.690Z,8.52
2022-07-25T06:05:56.907Z,7.93
2022-07-25T06:08:30.221Z,7.10
2022-07-25T06:11:00.264Z,8.85
2022-07-25T06:13:30.492Z,8.43
2022-07-25T06:16:03.642Z,7.53
2022-07-25T06:18:36.064Z,7.55
2022-07-25T06:23:39.764Z,8.77
2022-07-25T06:26:12.194Z,8.02
2022-07-25T06:28:42.855Z,8.60
2022-07-25T06:31:11.934Z,9.52
2022-07-25T06:33:40.986Z,9.60
2022-07-25T06:36:09.654Z,8.98
2022-07-25T06:38:38.836Z,9.18
2022-07-25T06:41:09.772Z,8.77
2022-07-25T06:43:44.151Z,8.65
2022-07-25T06:46:15.097Z,8.73
2022-07-25T06:48:45.902Z,9.32
2022-07-25T06:51:15.080Z,9.63
2022-07-25T06:53:44.634Z,8.50
2022-07-25T06:56:17.615Z,7.32
2022-07-25T06:58:51.053Z,7.63
2022-07-25T07:01:23.418Z,8.38
2022-07-25T07:03:54.088Z,8.38
2022-07-25T07:06:22.596Z,8.23
2022-07-25T07:08:51.712Z,7.97
2022-07-25T07:11:22.715Z,6.43
2022-07-25T07:13:53.327Z,7.25
2022-07-25T07:16:21.737Z,8.15
2022-07-25T07:18:49.839Z,7.57
2022-07-25T07:21:21.280Z,8.95
2022-07-25T07:23:53.466Z,7.82
2022-07-25T07:26:23.737Z,6.40
2022-07-25T07:28:56.115Z,8.15
2022-07-25T07:31:24.629Z,7.03
2022-07-25T07:33:53.528Z,6.95
2022-07-25T07:36:23.999Z,7.55
2022-07-25T07:38:54.714Z,7.82
2022-07-25T07:41:22.904Z,8.20
2022-07-25T07:43:53.866Z,8.23
2022-07-25T07:46:22.179Z,6.78
2022-07-25T07:48:51.743Z,7.28
2022-07-25T07:51:20.302Z,7.63
2022-07-25T07:54:06.297Z,6.85
2022-07-25T07:56:35.458Z,5.78
2022-07-25T07:59:05.878Z,5.05
2022-07-25T08:01:34.329Z,5.30
2022-07-25T08:04:02.249Z,6.50
2022-07-25T08:06:30.193Z,6.20
2022-07-25T08:08:58.207Z,5.25
2022-07-25T08:11:26.790Z,4.97
2022-07-25T08:13:55.003Z,5.35
2022-07-25T08:16:24.434Z,5.63
2022-07-25T08:18:52.504Z,5.25
2022-07-25T08:21:20.386Z,5.35
2022-07-25T08:23:53.219Z,5.53
2022-07-25T08:26:21.218Z,5.55
2022-07-25T08:28:59.898Z,5.30
2022-07-25T08:31:38.646Z,4.95
2022-07-25T08:34:07.069Z,4.85
2022-07-25T08:36:35.489Z,5.40
2022-07-25T08:39:03.551Z,5.00
2022-07-25T08:41:31.803Z,4.90
2022-07-25T08:44:00.283Z,5.05
2022-07-25T08:46:30.263Z,4.65
2022-07-25T08:48:59.922Z,5.00
2022-07-25T08:51:29.082Z,4.07
2022-07-25T08:53:57.246Z,4.13
2022-07-25T08:56:25.665Z,3.60
2022-07-25T08:58:58.850Z,3.38
2022-07-25T09:01:29.305Z,3.58
2022-07-25T09:04:03.105Z,2.92
2022-07-25T09:06:31.387Z,3.83
2022-07-25T09:09:01.364Z,3.55
2022-07-25T09:11:31.387Z,3.30
2022-07-25T09:14:01.787Z,2.40
2022-07-25T09:16:31.475Z,2.33
2022-07-25T09:19:12.060Z,2.10
2022-07-25T09:21:40.983Z,2.42
2022-07-25T09:24:11.540Z,2.58
2022-07-25T09:26:50.867Z,2.30
2022-07-25T09:29:21.539Z,2.40
2022-07-25T09:31:50.489Z,1.77
2022-07-25T09:34:31.726Z,2.30
2022-07-25T09:36:59.770Z,2.15
2022-07-25T09:39:35.913Z,1.85
2022-07-25T09:42:04.166Z,2.15
2022-07-25T09:44:32.418Z,1.80
2022-07-25T09:47:11.276Z,2.35
2022-07-25T09:49:45.087Z,1.98
2022-07-25T09:52:13.573Z,1.48
2022-07-25T09:54:41.916Z,1.77
2022-07-25T09:57:09.976Z,1.40
2022-07-25T09:59:39.493Z,1.92
2022-07-25T10:02:10.748Z,1.75
2022-07-25T10:04:47.364Z,1.75
2022-07-25T10:07:17.251Z,1.90
2022-07-25T10:09:47.250Z,1.52
2022-07-25T10:12:19.630Z,1.90
2022-07-25T10:15:07.773Z,1.75
2022-07-25T10:17:36.887Z,1.88
2022-07-25T10:20:08.912Z,1.92
2022-07-25T10:22:55.920Z,1.90
2022-07-25T10:25:25.055Z,2.63
2022-07-25T10:28:00.022Z,1.88
2022-07-25T10:30:29.884Z,2.08
2022-07-25T10:32:59.956Z,1.63
2022-07-25T10:35:29.997Z,1.73
2022-07-25T10:37:59.532Z,1.80
2022-07-25T10:40:29.892Z,2.45
2022-07-25T10:43:02.938Z,1.75
2022-07-25T10:45:40.743Z,2.47
2022-07-25T10:48:13.293Z,2.25
2022-07-25T10:50:56.062Z,2.47
2022-07-25T10:56:08.560Z,1.83
2022-07-25T10:58:48.530Z,2.03
2022-07-25T11:01:21.367Z,2.03
2022-07-25T11:03:50.838Z,2.13
2022-07-25T11:06:32.485Z,2.00
2022-07-25T11:09:01.438Z,1.90
2022-07-25T11:11:37.398Z,1.65
2022-07-25T11:14:06.803Z,1.63
2022-07-25T11:16:35.105Z,1.70
2022-07-25T11:19:03.589Z,1.80
2022-07-25T11:21:33.444Z,2.35
2022-07-25T11:24:01.513Z,2.33
2022-07-25T11:26:29.615Z,2.33
2022-07-25T11:28:57.602Z,1.90
2022-07-25T11:31:26.114Z,2.17
2022-07-25T11:33:54.364Z,1.67
2022-07-25T11:36:22.613Z,2.33
2022-07-25T11:38:52.132Z,3.17
2022-07-25T11:41:30.024Z,2.25
2022-07-25T11:43:58.573Z,2.22
2022-07-25T11:46:27.143Z,1.90
2022-07-25T11:49:09.343Z,2.60
2022-07-25T11:51:42.988Z,3.22
2022-07-25T11:54:15.717Z,2.20
2022-07-25T11:56:47.760Z,2.72
2022-07-25T11:59:17.015Z,2.47
2022-07-25T12:01:48.167Z,1.85
2022-07-25T12:04:20.805Z,2.50
2022-07-25T12:06:52.024Z,2.45
2022-07-25T12:09:24.223Z,2.05
2022-07-25T12:12:04.290Z,2.45
2022-07-25T12:14:35.515Z,1.75
2022-07-25T12:17:06.006Z,1.90
2022-07-25T12:19:36.526Z,2.53
2022-07-25T12:22:07.757Z,1.80
2022-07-25T12:24:41.268Z,2.38
2022-07-25T12:27:13.404Z,2.30
2022-07-25T12:29:43.311Z,2.50
2022-07-25T12:32:14.027Z,2.03
2022-07-25T12:34:45.810Z,2.80
2022-07-25T12:37:15.713Z,2.10
2022-07-25T12:39:49.745Z,2.20
2022-07-25T12:42:20.293Z,1.85
2022-07-25T12:44:51.498Z,1.48
2022-07-25T12:47:21.877Z,1.60
2022-07-25T12:49:52.460Z,1.45
2022-07-25T12:52:23.806Z,2.00
2022-07-25T12:54:56.111Z,2.08
2022-07-25T12:57:28.045Z,1.58
2022-07-25T12:59:57.228Z,1.88
2022-07-25T13:02:25.596Z,2.03
2022-07-25T13:04:53.786Z,1.90
2022-07-25T13:07:21.982Z,1.70
2022-07-25T13:09:50.048Z,1.80
2022-07-25T13:12:19.391Z,1.75
2022-07-25T13:14:48.086Z,1.73
2022-07-25T13:17:16.219Z,2.00
2022-07-25T13:19:45.110Z,2.33
2022-07-25T13:22:16.332Z,1.75
2022-07-25T13:24:47.093Z,2.28
2022-07-25T13:27:15.928Z,1.50
2022-07-25T13:29:47.626Z,1.85
2022-07-25T13:32:19.305Z,2.13
2022-07-25T13:34:49.776Z,1.63
2022-07-25T13:37:19.378Z,2.08
2022-07-25T13:39:49.535Z,1.98
2022-07-25T13:42:18.308Z,2.22
2022-07-25T13:44:47.972Z,1.98
2022-07-25T13:47:16.503Z,1.85
2022-07-25T13:49:46.788Z,2.28
2022-07-25T13:52:18.212Z,2.13
2022-07-25T13:54:47.469Z,1.90
2022-07-25T13:57:16.899Z,2.13
2022-07-25T13:59:45.049Z,2.38
2022-07-25T14:02:14.438Z,2.22
2022-07-25T14:04:42.586Z,2.78
2022-07-25T14:07:10.596Z,2.42
2022-07-25T14:09:40.214Z,2.60
2022-07-25T14:12:10.773Z,2.05
2022-07-25T14:14:40.329Z,2.50
2022-07-25T14:17:10.602Z,1.75
2022-07-25T14:19:42.680Z,2.25
2022-07-25T14:22:12.722Z,2.50
2022-07-25T14:24:44.497Z,2.47
2022-07-25T14:27:15.295Z,2.30
2022-07-25T14:29:47.442Z,2.22
2022-07-25T14:32:17.786Z,2.47
2022-07-25T14:34:49.945Z,2.00
2022-07-25T14:37:24.983Z,2.42
2022-07-25T14:39:56.949Z,2.72
2022-07-25T14:42:25.765Z,2.67
2022-07-25T14:44:55.747Z,2.10
2022-07-25T14:47:27.377Z,2.10
2022-07-25T14:50:00.485Z,2.40
2022-07-25T14:52:31.376Z,2.47
2022-07-25T14:55:01.897Z,2.30
2022-07-25T14:57:33.032Z,2.22
2022-07-25T15:00:03.936Z,2.10
2022-07-25T15:02:34.654Z,2.65
2022-07-25T15:05:09.621Z,2.53
2022-07-25T15:07:40.821Z,3.00
2022-07-25T15:10:11.613Z,2.05
2022-07-25T15:13:07.581Z,2.78
2022-07-25T15:15:42.241Z,1.92
2022-07-25T15:18:14.082Z,2.83
2022-07-25T15:20:49.241Z,2.70
2022-07-25T15:23:21.447Z,2.10
2022-07-25T15:26:01.901Z,2.55
2022-07-25T15:28:36.584Z,2.85
2022-07-25T15:31:13.159Z,2.45
2022-07-25T15:33:42.850Z,2.60
2022-07-25T15:36:14.745Z,2.33
2022-07-25T15:38:47.817Z,2.28
2022-07-25T15:41:17.623Z,2.38
2022-07-25T15:43:51.618Z,2.40
2022-07-25T15:46:22.620Z,2.20
2022-07-25T15:48:57.099Z,2.65
2022-07-25T15:51:31.615Z,2.50
2022-07-25T15:54:03.371Z,2.83
2022-07-25T15:56:36.537Z,2.72
2022-07-25T15:59:07.951Z,2.45
2022-07-25T16:01:39.557Z,2.78
2022-07-25T16:04:09.628Z,2.30
2022-07-25T16:06:43.012Z,2.45
2022-07-25T16:09:13.142Z,2.38
2022-07-25T16:11:42.683Z,3.03
2022-07-25T16:14:11.564Z,3.40
2022-07-25T16:16:41.913Z,2.13
2022-07-25T16:19:13.404Z,2.40
2022-07-25T16:21:45.387Z,2.22
2022-07-25T16:24:17.672Z,2.40
2022-07-25T16:26:49.355Z,2.08
2022-07-25T16:29:20.986Z,2.38
2022-07-25T16:31:53.829Z,2.35
2022-07-25T16:34:29.091Z,2.78
2022-07-25T16:37:02.377Z,2.67
2022-07-25T16:39:33.413Z,1.95
2022-07-25T16:42:03.611Z,3.05
2022-07-25T16:44:37.402Z,2.03
2022-07-25T16:47:09.320Z,2.08
2022-07-25T16:49:40.181Z,2.25
2022-07-25T16:52:11.867Z,2.85
2022-07-25T16:54:48.331Z,2.47
2022-07-25T16:57:16.677Z,2.38
2022-07-25T16:59:44.934Z,2.00
2022-07-25T17:02:13.077Z,2.95
2022-07-25T17:04:41.264Z,2.10
2022-07-25T17:07:10.708Z,2.42
2022-07-25T17:09:40.526Z,2.53
2022-07-25T17:12:08.866Z,2.85
2022-07-25T17:14:37.174Z,2.50
2022-07-25T17:17:06.838Z,2.58
2022-07-25T17:19:39.552Z,2.88
2022-07-25T17:22:08.488Z,2.00
2022-07-25T17:24:38.951Z,2.17
2022-07-25T17:27:07.774Z,2.67
2022-07-25T17:29:35.887Z,1.90
2022-07-25T17:32:05.856Z,2.38
2022-07-25T17:34:34.526Z,2.45
2022-07-25T17:37:03.078Z,2.40
2022-07-25T17:39:31.592Z,2.17
2022-07-25T17:42:01.401Z,2.97
2022-07-25T17:44:29.430Z,2.00
2022-07-25T17:46:57.635Z,2.40
2022-07-25T17:49:25.948Z,2.03
2022-07-25T17:51:53.981Z,2.47
2022-07-25T17:54:22.041Z,2.88
2022-07-25T17:56:50.149Z,2.35
2022-07-25T17:59:22.689Z,2.50
2022-07-25T18:01:53.341Z,2.45
2022-07-25T18:04:23.861Z,2.35
2022-07-25T18:06:54.225Z,2.05
2022-07-25T18:09:27.801Z,2.10
2022-07-25T18:12:01.428Z,1.88
2022-07-25T18:14:34.724Z,2.47
2022-07-25T18:17:06.792Z,2.10
2022-07-25T18:19:35.856Z,3.10
2022-07-25T18:22:06.646Z,2.50
2022-07-25T18:24:36.421Z,2.47
2022-07-25T18:27:08.141Z,2.88
2022-07-25T18:29:40.911Z,2.40
2022-07-25T18:34:40.873Z,2.28
2022-07-25T18:37:10.120Z,2.08
2022-07-25T18:39:41.361Z,2.30
2022-07-25T18:42:12.787Z,3.13
2022-07-25T18:44:43.127Z,2.30
2022-07-25T18:47:12.075Z,2.60
2022-07-25T18:49:44.486Z,3.17
2022-07-25T18:52:13.139Z,2.45
2022-07-25T18:54:44.465Z,2.63
2022-07-25T18:57:14.698Z,2.67
2022-07-25T18:59:45.881Z,2.88
2022-07-25T19:02:14.284Z,3.45
2022-07-25T19:04:42.403Z,2.70
2022-07-25T19:07:10.684Z,2.83
2022-07-25T19:09:38.945Z,2.60
2022-07-25T19:12:07.868Z,2.72
2022-07-25T19:14:35.996Z,2.40
2022-07-25T19:17:05.745Z,2.97
2022-07-25T19:19:35.859Z,2.40
2022-07-25T19:22:05.978Z,2.80
2022-07-25T19:24:36.424Z,2.80
2022-07-25T19:27:07.406Z,3.30
2022-07-25T19:29:38.156Z,2.70
2022-07-25T19:32:10.471Z,2.25
2022-07-25T19:34:40.229Z,2.20
2022-07-25T19:37:09.118Z,2.95
2022-07-25T19:39:40.688Z,2.75
2022-07-25T19:42:12.995Z,2.17
2022-07-25T19:44:43.857Z,2.77
2022-07-25T19:47:15.442Z,2.28
2022-07-25T19:49:46.443Z,2.80
2022-07-25T19:52:17.722Z,2.35
2022-07-25T19:54:48.030Z,3.15
2022-07-25T19:57:20.732Z,2.63
2022-07-25T19:59:49.900Z,2.43
2022-07-25T20:02:20.786Z,2.90
2022-07-25T20:04:52.245Z,2.53
2022-07-25T20:07:25.351Z,2.80
2022-07-25T20:09:58.203Z,3.80
2022-07-25T20:12:29.305Z,2.93
2022-07-25T20:15:00.164Z,3.17
2022-07-25T20:17:32.287Z,3.17
2022-07-25T20:20:03.361Z,2.65
2022-07-25T20:22:38.014Z,3.40
2022-07-25T20:25:11.666Z,2.95
2022-07-25T20:27:41.440Z,2.90
2022-07-25T20:30:14.784Z,3.67
2022-07-25T20:35:14.488Z,2.83
2022-07-25T20:37:45.286Z,2.75
2022-07-25T20:40:16.082Z,2.90
2022-07-25T20:42:46.300Z,2.88
2022-07-25T20:45:15.050Z,3.05
2022-07-25T20:47:47.105Z,2.80
2022-07-25T20:50:15.935Z,3.03
2022-07-25T20:52:45.902Z,3.40
2022-07-25T20:55:14.514Z,3.03
2022-07-25T20:57:50.331Z,2.92
2022-07-25T21:00:19.199Z,3.20
2022-07-25T21:02:51.667Z,3.70
2022-07-25T21:05:20.965Z,2.88
2022-07-25T21:07:50.243Z,3.22
2022-07-25T21:10:22.045Z,3.35
2022-07-25T21:12:58.753Z,2.63
2022-07-25T21:15:31.952Z,3.83
2022-07-25T21:18:04.886Z,3.20
2022-07-25T21:20:35.621Z,3.08
2022-07-25T21:23:07.420Z,3.05
2022-07-25T21:25:37.818Z,2.85
2022-07-25T21:28:07.874Z,2.95
2022-07-25T21:30:37.744Z,3.05
2022-07-25T21:33:14.220Z,3.03
2022-07-25T21:35:46.781Z,2.92
2022-07-25T21:38:34.862Z,3.50
2022-07-25T21:41:06.223Z,3.08
2022-07-25T21:43:38.344Z,3.80
2022-07-25T21:46:08.209Z,3.97
2022-07-25T21:48:57.721Z,3.70
2022-07-25T21:51:38.166Z,2.72
2022-07-25T21:54:20.646Z,3.45
2022-07-25T21:57:03.377Z,2.60
2022-07-25T21:59:33.476Z,3.83
2022-07-25T22:02:02.679Z,3.00
2022-07-25T22:04:32.270Z,3.80
2022-07-25T22:07:00.359Z,3.10
2022-07-25T22:09:28.621Z,3.35
2022-07-25T22:11:57.697Z,2.67
2022-07-25T22:14:26.273Z,2.90
2022-07-25T22:16:56.381Z,2.95
2022-07-25T22:19:24.975Z,3.10
2022-07-25T22:21:55.186Z,3.13
2022-07-25T22:24:23.438Z,3.95
2022-07-25T22:26:54.393Z,3.50
2022-07-25T22:29:22.472Z,4.07
2022-07-25T22:31:50.803Z,4.03
2022-07-25T22:34:19.231Z,3.95
2022-07-25T22:36:47.658Z,4.07
2022-07-25T22:39:17.463Z,3.80
2022-07-25T22:41:46.087Z,3.63
2022-07-25T22:44:14.576Z,3.42
2022-07-25T22:46:42.863Z,3.63
2022-07-25T22:49:11.658Z,4.40
2022-07-25T22:51:40.455Z,4.40
2022-07-25T22:54:08.924Z,3.50
2022-07-25T22:56:39.030Z,3.10
2022-07-25T22:59:07.329Z,3.58
2022-07-25T23:01:35.633Z,3.55
2022-07-25T23:04:05.720Z,4.45
2022-07-25T23:06:35.030Z,3.42
2022-07-25T23:09:03.106Z,2.90
2022-07-25T23:11:31.346Z,3.38
2022-07-25T23:14:00.660Z,4.38
2022-07-25T23:16:28.732Z,3.20
2022-07-25T23:18:57.283Z,3.28
2022-07-25T23:21:25.899Z,4.15
2022-07-25T23:23:55.270Z,3.40
2022-07-25T23:26:23.283Z,3.80
2022-07-25T23:28:51.282Z,3.30
2022-07-25T23:31:21.339Z,3.42
2022-07-25T23:33:54.131Z,4.03
2022-07-25T23:36:25.464Z,3.90
2022-07-25T23:38:53.430Z,3.33
2022-07-25T23:41:21.430Z,3.33
2022-07-25T23:43:57.271Z,3.50
2022-07-25T23:46:31.437Z,3.78
2022-07-25T23:49:00.745Z,2.70
2022-07-25T23:51:28.909Z,3.20
2022-07-25T23:53:56.933Z,2.90
2022-07-25T23:56:25.553Z,3.28
2022-07-25T23:58:53.715Z,3.70
